Time,TemperatureF,DewpointF,PressureIn,WindDirection,WindDirectionDegrees,WindSpeedMPH,WindSpeedGustMPH,Humidity,HourlyPrecipIn,Conditions,Clouds,dailyrainin,SoftwareType,DateUTC
2013-04-03 00:02:00,30.0,18.0,30.30,North,0,0.0,0.0,60,0.00,,,0.00,,2013-04-03 05:02:00,
2013-04-03 00:12:00,30.0,18.0,30.30,North,0,0.0,0.0,60,0.00,,,0.00,,2013-04-03 05:12:00,
2013-04-03 00:22:00,29.0,18.0,30.30,North,0,0.0,0.0,63,0.00,,,0.00,,2013-04-03 05:22:00,
2013-04-03 00:32:00,28.0,18.0,30.31,North,0,0.0,2.0,67,0.00,,,0.00,,2013-04-03 05:32:00,
2013-04-03 00:42:00,28.0,18.0,30.31,North,0,0.0,2.0,67,0.00,,,0.00,,2013-04-03 05:42:00,
2013-04-03 00:52:00,28.0,19.0,30.31,North,0,0.0,1.0,68,0.00,,,0.00,,2013-04-03 05:52:00,
2013-04-03 01:02:00,28.0,18.0,30.31,North,0,0.0,1.0,67,0.00,,,0.00,,2013-04-03 06:02:00,
2013-04-03 01:12:00,28.0,18.0,30.31,North,0,0.0,1.0,67,0.00,,,0.00,,2013-04-03 06:12:00,
2013-04-03 01:22:00,28.0,18.0,30.32,North,0,0.0,4.0,67,0.00,,,0.00,,2013-04-03 06:22:00,
2013-04-03 01:32:00,28.0,18.0,30.32,North,0,0.0,4.0,67,0.00,,,0.00,,2013-04-03 06:32:00,
2013-04-03 01:42:00,28.0,18.0,30.32,North,0,0.0,4.0,67,0.00,,,0.00,,2013-04-03 06:42:00,
2013-04-03 01:52:00,29.0,19.0,30.32,WNW,286,2.0,7.0,67,0.00,,,0.00,,2013-04-03 06:52:00,
2013-04-03 02:02:00,29.0,20.0,30.32,North,0,0.0,5.0,68,0.00,,,0.00,,2013-04-03 07:02:00,
2013-04-03 02:12:00,29.0,20.0,30.32,North,0,0.0,5.0,68,0.00,,,0.00,,2013-04-03 07:12:00,
2013-04-03 02:23:00,28.0,19.0,30.33,North,0,0.0,-999.0,68,0.00,,,0.00,,2013-04-03 07:23:00,
2013-04-03 02:32:00,28.0,19.0,30.33,North,0,0.0,5.0,68,0.00,,,0.00,,2013-04-03 07:32:00,
2013-04-03 02:42:00,28.0,19.0,30.33,North,0,0.0,5.0,68,0.00,,,0.00,,2013-04-03 07:42:00,
2013-04-03 02:52:00,28.0,19.0,30.33,North,0,0.0,1.0,68,0.00,,,0.00,,2013-04-03 07:52:00,
2013-04-03 03:03:00,28.0,20.0,30.33,North,0,0.0,0.0,70,0.00,,,0.00,,2013-04-03 08:03:00,
2013-04-03 03:12:00,28.0,20.0,30.33,North,0,0.0,0.0,70,0.00,,,0.00,,2013-04-03 08:12:00,
2013-04-03 03:22:00,27.0,19.0,30.33,North,0,0.0,0.0,71,0.00,,,0.00,,2013-04-03 08:22:00,
2013-04-03 03:32:00,26.0,19.0,30.33,North,0,0.0,3.0,73,0.00,,,0.00,,2013-04-03 08:32:00,
2013-04-03 03:42:00,26.0,19.0,30.33,North,0,0.0,3.0,73,0.00,,,0.00,,2013-04-03 08:42:00,
2013-04-03 03:52:00,26.0,19.0,30.33,North,0,0.0,0.0,73,0.00,,,0.00,,2013-04-03 08:52:00,
2013-04-03 04:02:00,26.0,19.0,30.33,North,0,0.0,0.0,73,0.00,,,0.00,,2013-04-03 09:02:00,
2013-04-03 04:12:00,26.0,19.0,30.33,North,0,0.0,0.0,73,0.00,,,0.00,,2013-04-03 09:12:00,
2013-04-03 04:22:00,26.0,19.0,30.34,North,0,0.0,1.0,74,0.00,,,0.00,,2013-04-03 09:22:00,
2013-04-03 04:33:00,26.0,19.0,3.03,North,0,0.0,2.0,74,0.00,,,0.00,,2013-04-03 09:33:00,
2013-04-03 04:43:00,26.0,19.0,3.03,North,0,0.0,2.0,74,0.00,,,0.00,,2013-04-03 09:43:00,
2013-04-03 04:52:00,26.0,19.0,30.35,North,0,0.0,0.0,73,0.00,,,0.00,,2013-04-03 09:52:00,
2013-04-03 05:03:00,26.0,19.0,30.35,North,0,0.0,-999.0,74,0.00,,,0.00,,2013-04-03 10:03:00,
2013-04-03 05:12:00,26.0,19.0,30.35,North,0,0.0,-999.0,74,0.00,,,0.00,,2013-04-03 10:12:00,
2013-04-03 05:22:00,25.0,18.0,30.35,North,0,0.0,0.0,74,0.00,,,0.00,,2013-04-03 10:22:00,
2013-04-03 05:33:00,25.0,18.0,30.35,North,0,0.0,0.0,74,0.00,,,0.00,,2013-04-03 10:33:00,
2013-04-03 05:43:00,25.0,18.0,30.35,North,0,0.0,0.0,74,0.00,,,0.00,,2013-04-03 10:43:00,
2013-04-03 05:52:00,24.0,17.0,30.35,North,0,0.0,0.0,74,0.00,,,0.00,,2013-04-03 10:52:00,
2013-04-03 06:02:00,24.0,17.0,30.35,North,0,0.0,0.0,74,0.00,,,0.00,,2013-04-03 11:02:00,
2013-04-03 06:12:00,24.0,17.0,30.35,North,0,0.0,0.0,74,0.00,,,0.00,,2013-04-03 11:12:00,
2013-04-03 06:22:00,23.0,16.0,30.37,North,0,0.0,0.0,74,0.00,,,0.00,,2013-04-03 11:22:00,
2013-04-03 06:32:00,23.0,16.0,30.37,North,0,0.0,0.0,74,0.00,,,0.00,,2013-04-03 11:32:00,
2013-04-03 06:42:00,23.0,16.0,30.37,North,0,0.0,0.0,74,0.00,,,0.00,,2013-04-03 11:42:00,
2013-04-03 06:52:00,23.0,16.0,30.37,North,0,0.0,0.0,74,0.00,,,0.00,,2013-04-03 11:52:00,
2013-04-03 07:02:00,22.0,15.0,30.37,North,0,0.0,0.0,74,0.00,,,0.00,,2013-04-03 12:02:00,
2013-04-03 07:13:00,22.0,15.0,30.37,North,0,0.0,0.0,74,0.00,,,0.00,,2013-04-03 12:13:00,
2013-04-03 07:22:00,22.0,15.0,30.39,North,0,0.0,0.0,73,0.00,,,0.00,,2013-04-03 12:22:00,
2013-04-03 07:32:00,21.0,14.0,30.40,North,0,0.0,0.0,73,0.00,,,0.00,,2013-04-03 12:32:00,
2013-04-03 07:42:00,21.0,14.0,30.40,North,0,0.0,0.0,73,0.00,,,0.00,,2013-04-03 12:42:00,
2013-04-03 07:52:00,22.0,14.0,30.40,North,0,0.0,0.0,72,0.00,,,0.00,,2013-04-03 12:52:00,
2013-04-03 08:02:00,22.0,14.0,30.40,North,0,0.0,0.0,72,0.00,,,0.00,,2013-04-03 13:02:00,
2013-04-03 08:12:00,22.0,14.0,30.40,North,0,0.0,0.0,72,0.00,,,0.00,,2013-04-03 13:12:00,
2013-04-03 08:22:00,26.0,19.0,30.42,North,0,0.0,0.0,73,0.00,,,0.00,,2013-04-03 13:22:00,
2013-04-03 08:32:00,28.0,20.0,30.42,North,0,0.0,1.0,73,0.00,,,0.00,,2013-04-03 13:32:00,
2013-04-03 08:42:00,28.0,20.0,30.42,North,0,0.0,1.0,73,0.00,,,0.00,,2013-04-03 13:42:00,
2013-04-03 08:52:00,30.0,22.0,30.44,North,0,0.0,2.0,71,0.00,,,0.00,,2013-04-03 13:52:00,
2013-04-03 09:02:00,30.0,22.0,30.44,North,0,0.0,2.0,71,0.00,,,0.00,,2013-04-03 14:02:00,
2013-04-03 09:12:00,30.0,22.0,30.44,North,0,0.0,2.0,71,0.00,,,0.00,,2013-04-03 14:12:00,
2013-04-03 09:22:00,33.0,22.0,30.44,North,0,0.0,1.0,63,0.00,,,0.00,,2013-04-03 14:22:00,
2013-04-03 09:32:00,34.0,22.0,30.44,North,0,0.0,2.0,62,0.00,,,0.00,,2013-04-03 14:32:00,
2013-04-03 09:42:00,34.0,22.0,30.44,North,0,0.0,2.0,62,0.00,,,0.00,,2013-04-03 14:42:00,
2013-04-03 09:52:00,35.0,23.0,30.45,North,0,0.0,1.0,61,0.00,,,0.00,,2013-04-03 14:52:00,
2013-04-03 10:02:00,36.0,22.0,30.45,North,0,0.0,1.0,57,0.00,,,0.00,,2013-04-03 15:02:00,
2013-04-03 10:12:00,36.0,22.0,30.45,North,0,0.0,1.0,57,0.00,,,0.00,,2013-04-03 15:12:00,
2013-04-03 10:23:00,37.0,21.0,30.45,North,0,0.0,1.0,51,0.00,,,0.00,,2013-04-03 15:23:00,
2013-04-03 10:33:00,38.0,21.0,30.45,North,0,0.0,-999.0,49,0.00,,,0.00,,2013-04-03 15:33:00,
2013-04-03 10:42:00,38.0,21.0,30.45,North,0,0.0,-999.0,49,0.00,,,0.00,,2013-04-03 15:42:00,
2013-04-03 10:53:00,38.0,21.0,30.45,North,0,0.0,-999.0,49,0.00,,,0.00,,2013-04-03 15:53:00,
2013-04-03 11:03:00,39.0,17.0,30.45,North,0,0.0,5.0,40,0.00,,,0.00,,2013-04-03 16:03:00,
2013-04-03 11:13:00,39.0,17.0,30.45,North,0,0.0,5.0,40,0.00,,,0.00,,2013-04-03 16:13:00,
2013-04-03 11:24:00,39.0,17.0,30.45,WNW,292,1.0,5.0,40,0.00,,,0.00,,2013-04-03 16:24:00,
2013-04-03 11:32:00,39.0,16.0,30.44,North,0,0.0,2.0,38,0.00,,,0.00,,2013-04-03 16:32:00,
2013-04-03 11:43:00,39.0,16.0,30.44,North,0,0.0,2.0,38,0.00,,,0.00,,2013-04-03 16:43:00,
2013-04-03 11:52:00,39.0,16.0,30.44,North,0,0.0,2.0,38,0.00,,,0.00,,2013-04-03 16:52:00,
2013-04-03 12:03:00,39.0,17.0,30.44,North,0,0.0,6.0,41,0.00,,,0.00,,2013-04-03 17:03:00,
2013-04-03 12:13:00,39.0,17.0,30.44,North,0,0.0,6.0,41,0.00,,,0.00,,2013-04-03 17:13:00,
2013-04-03 12:23:00,40.0,18.0,30.42,North,0,0.0,5.0,41,0.00,,,0.00,,2013-04-03 17:23:00,
2013-04-03 12:33:00,40.0,18.0,30.41,ENE,67,1.0,6.0,41,0.00,,,0.00,,2013-04-03 17:33:00,
2013-04-03 12:46:00,40.0,18.0,30.41,ENE,67,1.0,6.0,41,0.00,,,0.00,,2013-04-03 17:46:00,
2013-04-03 12:53:00,40.0,19.0,30.40,North,0,0.0,6.0,42,0.00,,,0.00,,2013-04-03 17:53:00,
2013-04-03 13:02:00,40.0,18.0,30.40,North,0,0.0,5.0,40,0.00,,,0.00,,2013-04-03 18:02:00,
2013-04-03 13:13:00,40.0,18.0,30.40,North,0,0.0,5.0,40,0.00,,,0.00,,2013-04-03 18:13:00,
2013-04-03 13:22:00,40.0,18.0,30.40,ENE,66,2.0,7.0,41,0.00,,,0.00,,2013-04-03 18:22:00,
2013-04-03 13:33:00,41.0,20.0,30.40,ENE,68,1.0,4.0,43,0.00,,,0.00,,2013-04-03 18:33:00,
2013-04-03 13:43:00,41.0,20.0,30.40,ENE,68,1.0,4.0,43,0.00,,,0.00,,2013-04-03 18:43:00,
2013-04-03 13:52:00,41.0,18.0,30.40,North,0,0.0,7.0,39,0.00,,,0.00,,2013-04-03 18:52:00,
2013-04-03 14:02:00,43.0,21.0,30.40,North,0,0.0,6.0,41,0.00,,,0.00,,2013-04-03 19:02:00,
2013-04-03 14:12:00,43.0,21.0,30.40,North,0,0.0,6.0,41,0.00,,,0.00,,2013-04-03 19:12:00,
2013-04-03 14:22:00,42.0,18.0,30.39,North,0,0.0,5.0,37,0.00,,,0.00,,2013-04-03 19:22:00,
2013-04-03 14:32:00,44.0,20.0,30.40,WSW,249,1.0,4.0,38,0.00,,,0.00,,2013-04-03 19:32:00,
2013-04-03 14:42:00,44.0,20.0,30.40,WSW,249,1.0,4.0,38,0.00,,,0.00,,2013-04-03 19:42:00,
2013-04-03 14:52:00,43.0,17.0,30.40,North,-999,1.0,6.0,35,0.00,,,0.00,,2013-04-03 19:52:00,
2013-04-03 15:02:00,44.0,19.0,30.39,North,0,0.0,5.0,36,0.00,,,0.00,,2013-04-03 20:02:00,
2013-04-03 15:12:00,44.0,19.0,30.39,North,0,0.0,5.0,36,0.00,,,0.00,,2013-04-03 20:12:00,
2013-04-03 15:22:00,44.0,19.0,30.39,North,0,0.0,5.0,36,0.00,,,0.00,,2013-04-03 20:22:00,
2013-04-03 15:32:00,44.0,19.0,30.39,North,0,0.0,5.0,36,0.00,,,0.00,,2013-04-03 20:32:00,
2013-04-03 15:53:00,45.0,15.0,30.38,WSW,257,1.0,7.0,30,0.00,,,0.00,,2013-04-03 20:53:00,
2013-04-03 16:02:00,46.0,18.0,30.37,North,0,0.0,5.0,32,0.00,,,0.00,,2013-04-03 21:02:00,
2013-04-03 16:12:00,46.0,18.0,30.37,North,0,0.0,5.0,32,0.00,,,0.00,,2013-04-03 21:12:00,
2013-04-03 16:22:00,46.0,16.0,30.36,North,0,0.0,8.0,30,0.00,,,0.00,,2013-04-03 21:22:00,
2013-04-03 16:32:00,46.0,17.0,30.35,North,0,0.0,4.0,31,0.00,,,0.00,,2013-04-03 21:32:00,
2013-04-03 16:42:00,46.0,17.0,30.35,North,0,0.0,4.0,31,0.00,,,0.00,,2013-04-03 21:42:00,
2013-04-03 16:52:00,46.0,18.0,30.35,SW,219,1.0,5.0,32,0.00,,,0.00,,2013-04-03 21:52:00,
2013-04-03 17:02:00,46.0,21.0,30.35,North,0,0.0,9.0,37,0.00,,,0.00,,2013-04-03 22:02:00,
2013-04-03 17:12:00,46.0,21.0,30.35,North,0,0.0,9.0,37,0.00,,,0.00,,2013-04-03 22:12:00,
2013-04-03 17:22:00,46.0,19.0,30.34,WSW,244,1.0,6.0,34,0.00,,,0.00,,2013-04-03 22:22:00,
2013-04-03 17:32:00,45.0,18.0,30.34,North,0,0.0,5.0,33,0.00,,,0.00,,2013-04-03 22:32:00,
2013-04-03 17:42:00,45.0,18.0,30.34,North,0,0.0,5.0,33,0.00,,,0.00,,2013-04-03 22:42:00,
2013-04-03 17:52:00,45.0,18.0,30.33,WSW,257,1.0,8.0,34,0.00,,,0.00,,2013-04-03 22:52:00,
2013-04-03 18:02:00,46.0,20.0,30.33,North,0,0.0,4.0,35,0.00,,,0.00,,2013-04-03 23:02:00,
2013-04-03 18:12:00,46.0,20.0,30.33,North,0,0.0,4.0,35,0.00,,,0.00,,2013-04-03 23:12:00,
2013-04-03 18:22:00,45.0,18.0,30.33,WSW,247,2.0,6.0,34,0.00,,,0.00,,2013-04-03 23:22:00,
2013-04-03 18:32:00,45.0,18.0,30.33,WSW,247,2.0,6.0,34,0.00,,,0.00,,2013-04-03 23:32:00,
2013-04-03 18:42:00,45.0,18.0,30.33,WSW,247,2.0,6.0,34,0.00,,,0.00,,2013-04-03 23:42:00,
2013-04-03 18:53:00,44.0,19.0,30.32,WSW,240,1.0,6.0,37,0.00,,,0.00,,2013-04-03 23:53:00,
2013-04-03 19:03:00,43.0,21.0,30.32,North,0,0.0,5.0,41,0.00,,,0.00,,2013-04-04 00:03:00,
2013-04-03 19:12:00,43.0,21.0,30.32,North,0,0.0,5.0,41,0.00,,,0.00,,2013-04-04 00:12:00,
2013-04-03 19:22:00,42.0,19.0,30.32,North,0,0.0,4.0,40,0.00,,,0.00,,2013-04-04 00:22:00,
2013-04-03 19:32:00,42.0,21.0,30.32,North,0,0.0,1.0,42,0.00,,,0.00,,2013-04-04 00:32:00,
2013-04-03 19:43:00,42.0,21.0,30.32,North,0,0.0,1.0,42,0.00,,,0.00,,2013-04-04 00:43:00,
2013-04-03 19:52:00,41.0,20.0,30.30,North,0,0.0,1.0,43,0.00,,,0.00,,2013-04-04 00:52:00,
2013-04-03 20:02:00,40.0,20.0,30.30,North,0,0.0,0.0,45,0.00,,,0.00,,2013-04-04 01:02:00,
2013-04-03 20:12:00,40.0,20.0,30.30,North,0,0.0,0.0,45,0.00,,,0.00,,2013-04-04 01:12:00,
2013-04-03 20:22:00,39.0,20.0,30.29,North,0,0.0,2.0,47,0.00,,,0.00,,2013-04-04 01:22:00,
2013-04-03 20:32:00,38.0,22.0,30.30,North,0,0.0,0.0,51,0.00,,,0.00,,2013-04-04 01:32:00,
2013-04-03 20:43:00,38.0,22.0,30.30,North,0,0.0,0.0,51,0.00,,,0.00,,2013-04-04 01:43:00,
2013-04-03 20:52:00,37.0,23.0,30.30,North,0,0.0,4.0,56,0.00,,,0.00,,2013-04-04 01:52:00,
2013-04-03 21:02:00,37.0,24.0,30.30,SSE,158,1.0,5.0,58,0.00,,,0.00,,2013-04-04 02:02:00,
2013-04-03 21:12:00,37.0,24.0,30.30,SSE,158,1.0,5.0,58,0.00,,,0.00,,2013-04-04 02:12:00,
2013-04-03 21:22:00,36.0,23.0,30.31,North,0,0.0,5.0,59,0.00,,,0.00,,2013-04-04 02:22:00,
2013-04-03 21:32:00,35.0,22.0,30.31,North,0,0.0,6.0,58,0.00,,,0.00,,2013-04-04 02:32:00,
2013-04-03 21:42:00,35.0,22.0,30.31,North,0,0.0,6.0,58,0.00,,,0.00,,2013-04-04 02:42:00,
2013-04-03 21:52:00,35.0,22.0,30.31,North,0,0.0,6.0,58,0.00,,,0.00,,2013-04-04 02:52:00,
2013-04-03 22:02:00,34.0,21.0,30.30,North,0,0.0,7.0,59,0.00,,,0.00,,2013-04-04 03:02:00,
2013-04-03 22:12:00,34.0,21.0,30.30,North,0,0.0,7.0,59,0.00,,,0.00,,2013-04-04 03:12:00,
2013-04-03 22:22:00,34.0,22.0,30.30,North,0,0.0,5.0,60,0.00,,,0.00,,2013-04-04 03:22:00,
2013-04-03 22:33:00,33.0,21.0,30.30,North,0,0.0,4.0,61,0.00,,,0.00,,2013-04-04 03:33:00,
2013-04-03 22:44:00,33.0,21.0,30.30,North,0,0.0,4.0,61,0.00,,,0.00,,2013-04-04 03:44:00,
2013-04-03 22:53:00,33.0,21.0,30.30,North,0,0.0,-999.0,62,0.00,,,0.00,,2013-04-04 03:53:00,
2013-04-03 23:03:00,32.0,21.0,0.30,North,0,0.0,5.0,63,0.00,,,0.00,,2013-04-04 04:03:00,
2013-04-03 23:12:00,32.0,21.0,0.30,North,0,0.0,5.0,63,0.00,,,0.00,,2013-04-04 04:12:00,
2013-04-03 23:23:00,32.0,21.0,0.30,North,0,0.0,5.0,63,0.00,,,0.00,,2013-04-04 04:23:00,
2013-04-03 23:33:00,32.0,21.0,30.29,North,0,0.0,5.0,64,0.00,,,0.00,,2013-04-04 04:33:00,
2013-04-03 23:43:00,32.0,21.0,30.29,North,0,0.0,5.0,64,0.00,,,0.00,,2013-04-04 04:43:00,
2013-04-03 23:53:00,32.0,21.0,30.29,North,0,0.0,5.0,64,0.00,,,0.00,,2013-04-04 04:53:00,